sensor_id;sensor_type;location;lat;lon;timestamp;temperature;humidity
3310;DHT22;1667;53.238;10.394;2023-07-31T00:01:01;18.50;99.90
3310;DHT22;1667;53.238;10.394;2023-07-31T00:06:00;18.40;99.90
3310;DHT22;1667;53.238;10.394;2023-07-31T00:11:24;18.40;99.90
3310;DHT22;1667;53.238;10.394;2023-07-31T00:16:24;18.30;99.90
3310;DHT22;1667;53.238;10.394;2023-07-31T00:21:23;18.40;99.90
3310;DHT22;1667;53.238;10.394;2023-07-31T00:26:21;18.40;99.90
3310;DHT22;1667;53.238;10.394;2023-07-31T00:31:20;18.40;99.90
3310;DHT22;1667;53.238;10.394;2023-07-31T00:36:20;18.40;99.90
3310;DHT22;1667;53.238;10.394;2023-07-31T00:41:18;18.40;99.90
3310;DHT22;1667;53.238;10.394;2023-07-31T00:46:18;18.40;99.90
3310;DHT22;1667;53.238;10.394;2023-07-31T00:51:17;18.40;99.90
3310;DHT22;1667;53.238;10.394;2023-07-31T00:56:16;18.40;99.90
3310;DHT22;1667;53.238;10.394;2023-07-31T01:07:52;18.40;99.90
3310;DHT22;1667;53.238;10.394;2023-07-31T01:12:55;18.40;99.90
3310;DHT22;1667;53.238;10.394;2023-07-31T01:17:55;18.40;99.90
3310;DHT22;1667;53.238;10.394;2023-07-31T01:28:43;18.40;99.90
3310;DHT22;1667;53.238;10.394;2023-07-31T01:33:45;18.70;99.90
3310;DHT22;1667;53.238;10.394;2023-07-31T01:38:44;18.70;99.90
3310;DHT22;1667;53.238;10.394;2023-07-31T01:43:43;18.40;99.90
3310;DHT22;1667;53.238;10.394;2023-07-31T01:48:42;18.40;99.90
3310;DHT22;1667;53.238;10.394;2023-07-31T01:53:40;18.40;99.90
3310;DHT22;1667;53.238;10.394;2023-07-31T01:58:39;18.40;99.90
3310;DHT22;1667;53.238;10.394;2023-07-31T02:03:39;18.40;99.90
3310;DHT22;1667;53.238;10.394;2023-07-31T02:08:39;18.40;99.90
3310;DHT22;1667;53.238;10.394;2023-07-31T02:13:38;18.40;99.90
3310;DHT22;1667;53.238;10.394;2023-07-31T02:18:37;18.30;99.90
3310;DHT22;1667;53.238;10.394;2023-07-31T02:23:36;18.40;99.90
3310;DHT22;1667;53.238;10.394;2023-07-31T02:29:02;18.30;99.90
3310;DHT22;1667;53.238;10.394;2023-07-31T02:34:01;18.40;99.90
3310;DHT22;1667;53.238;10.394;2023-07-31T02:39:01;18.30;99.90
3310;DHT22;1667;53.238;10.394;2023-07-31T02:43:59;18.30;99.90
3310;DHT22;1667;53.238;10.394;2023-07-31T02:48:58;18.30;99.90
3310;DHT22;1667;53.238;10.394;2023-07-31T02:53:56;18.30;99.90
3310;DHT22;1667;53.238;10.394;2023-07-31T02:58:56;18.30;99.90
3310;DHT22;1667;53.238;10.394;2023-07-31T03:03:55;18.30;99.90
3310;DHT22;1667;53.238;10.394;2023-07-31T03:08:55;18.30;99.90
3310;DHT22;1667;53.238;10.394;2023-07-31T03:13:53;18.30;99.90
3310;DHT22;1667;53.238;10.394;2023-07-31T03:18:54;18.30;99.90
3310;DHT22;1667;53.238;10.394;2023-07-31T03:23:52;18.30;99.90
3310;DHT22;1667;53.238;10.394;2023-07-31T03:28:51;18.30;99.90
3310;DHT22;1667;53.238;10.394;2023-07-31T03:33:50;18.30;99.90
3310;DHT22;1667;53.238;10.394;2023-07-31T03:38:50;18.30;99.90
3310;DHT22;1667;53.238;10.394;2023-07-31T03:43:50;18.30;99.90
3310;DHT22;1667;53.238;10.394;2023-07-31T03:48:49;18.30;99.90
3310;DHT22;1667;53.238;10.394;2023-07-31T03:53:50;18.30;99.90
3310;DHT22;1667;53.238;10.394;2023-07-31T03:58:48;18.30;99.90
3310;DHT22;1667;53.238;10.394;2023-07-31T04:03:47;18.30;99.90
3310;DHT22;1667;53.238;10.394;2023-07-31T04:08:45;18.30;99.90
3310;DHT22;1667;53.238;10.394;2023-07-31T04:13:46;18.30;99.90
3310;DHT22;1667;53.238;10.394;2023-07-31T04:24:34;18.30;99.90
3310;DHT22;1667;53.238;10.394;2023-07-31T04:29:34;18.30;99.90
3310;DHT22;1667;53.238;10.394;2023-07-31T04:34:32;18.30;99.90
3310;DHT22;1667;53.238;10.394;2023-07-31T04:39:31;18.30;99.90
3310;DHT22;1667;53.238;10.394;2023-07-31T04:44:29;18.30;99.90
3310;DHT22;1667;53.238;10.394;2023-07-31T04:49:31;18.30;99.90
3310;DHT22;1667;53.238;10.394;2023-07-31T05:00:29;18.40;99.90
3310;DHT22;1667;53.238;10.394;2023-07-31T05:05:29;18.40;99.90
3310;DHT22;1667;53.238;10.394;2023-07-31T05:10:28;18.40;99.90
3310;DHT22;1667;53.238;10.394;2023-07-31T05:15:26;18.40;99.90
3310;DHT22;1667;53.238;10.394;2023-07-31T05:20:25;18.40;99.90
3310;DHT22;1667;53.238;10.394;2023-07-31T05:25:25;18.40;99.90
3310;DHT22;1667;53.238;10.394;2023-07-31T05:30:24;18.40;99.90
3310;DHT22;1667;53.238;10.394;2023-07-31T05:35:23;18.40;99.90
3310;DHT22;1667;53.238;10.394;2023-07-31T05:40:22;18.50;99.90
3310;DHT22;1667;53.238;10.394;2023-07-31T05:45:22;18.50;99.90
3310;DHT22;1667;53.238;10.394;2023-07-31T05:50:20;18.50;99.90
3310;DHT22;1667;53.238;10.394;2023-07-31T05:55:19;18.60;99.90
3310;DHT22;1667;53.238;10.394;2023-07-31T06:00:18;18.60;99.90
3310;DHT22;1667;53.238;10.394;2023-07-31T06:05:19;18.70;99.90
3310;DHT22;1667;53.238;10.394;2023-07-31T06:10:18;18.70;99.90
3310;DHT22;1667;53.238;10.394;2023-07-31T06:15:16;18.80;99.90
3310;DHT22;1667;53.238;10.394;2023-07-31T06:20:33;18.80;99.90
3310;DHT22;1667;53.238;10.394;2023-07-31T06:25:31;18.90;99.90
3310;DHT22;1667;53.238;10.394;2023-07-31T06:30:30;18.90;99.90
3310;DHT22;1667;53.238;10.394;2023-07-31T06:35:28;18.90;99.90
3310;DHT22;1667;53.238;10.394;2023-07-31T06:40:28;19.00;99.90
3310;DHT22;1667;53.238;10.394;2023-07-31T06:45:27;19.00;99.90
3310;DHT22;1667;53.238;10.394;2023-07-31T06:50:25;19.10;99.90
3310;DHT22;1667;53.238;10.394;2023-07-31T06:55:27;19.10;99.90
3310;DHT22;1667;53.238;10.394;2023-07-31T07:00:26;19.20;99.90
3310;DHT22;1667;53.238;10.394;2023-07-31T07:05:26;19.20;99.90
3310;DHT22;1667;53.238;10.394;2023-07-31T07:10:24;19.30;99.90
3310;DHT22;1667;53.238;10.394;2023-07-31T07:15:24;19.30;99.90
3310;DHT22;1667;53.238;10.394;2023-07-31T07:20:22;19.40;99.90
3310;DHT22;1667;53.238;10.394;2023-07-31T07:25:21;19.40;99.90
3310;DHT22;1667;53.238;10.394;2023-07-31T07:30:20;19.50;99.90
3310;DHT22;1667;53.238;10.394;2023-07-31T07:35:20;19.60;99.90
3310;DHT22;1667;53.238;10.394;2023-07-31T07:40:18;19.60;99.90
3310;DHT22;1667;53.238;10.394;2023-07-31T07:45:17;19.60;99.90
3310;DHT22;1667;53.238;10.394;2023-07-31T07:50:16;19.70;99.90
3310;DHT22;1667;53.238;10.394;2023-07-31T07:55:18;19.70;99.90
3310;DHT22;1667;53.238;10.394;2023-07-31T08:00:17;19.70;99.90
3310;DHT22;1667;53.238;10.394;2023-07-31T08:05:15;19.70;99.90
3310;DHT22;1667;53.238;10.394;2023-07-31T08:10:14;19.70;99.90
3310;DHT22;1667;53.238;10.394;2023-07-31T08:15:14;19.70;99.90
3310;DHT22;1667;53.238;10.394;2023-07-31T08:20:13;19.80;99.90
3310;DHT22;1667;53.238;10.394;2023-07-31T08:25:12;19.80;99.90
3310;DHT22;1667;53.238;10.394;2023-07-31T08:30:13;19.80;99.90
3310;DHT22;1667;53.238;10.394;2023-07-31T08:35:12;19.80;99.90
3310;DHT22;1667;53.238;10.394;2023-07-31T08:40:11;19.80;99.90
3310;DHT22;1667;53.238;10.394;2023-07-31T08:45:15;19.80;99.90
3310;DHT22;1667;53.238;10.394;2023-07-31T08:50:15;19.90;99.90
3310;DHT22;1667;53.238;10.394;2023-07-31T08:55:15;19.90;99.90
3310;DHT22;1667;53.238;10.394;2023-07-31T09:00:15;19.90;99.90
3310;DHT22;1667;53.238;10.394;2023-07-31T09:05:15;19.90;99.90
3310;DHT22;1667;53.238;10.394;2023-07-31T09:10:14;19.90;99.90
3310;DHT22;1667;53.238;10.394;2023-07-31T09:15:12;19.90;99.90
3310;DHT22;1667;53.238;10.394;2023-07-31T09:20:33;19.90;99.90
3310;DHT22;1667;53.238;10.394;2023-07-31T09:25:32;19.90;99.90
3310;DHT22;1667;53.238;10.394;2023-07-31T09:30:31;20.00;99.90
3310;DHT22;1667;53.238;10.394;2023-07-31T09:35:31;20.00;99.90
3310;DHT22;1667;53.238;10.394;2023-07-31T09:40:33;20.00;99.90
3310;DHT22;1667;53.238;10.394;2023-07-31T09:45:34;20.10;99.90
3310;DHT22;1667;53.238;10.394;2023-07-31T09:50:38;20.10;99.90
3310;DHT22;1667;53.238;10.394;2023-07-31T09:55:40;20.10;99.90
3310;DHT22;1667;53.238;10.394;2023-07-31T10:00:39;20.20;99.90
3310;DHT22;1667;53.238;10.394;2023-07-31T10:05:40;20.20;99.90
3310;DHT22;1667;53.238;10.394;2023-07-31T10:10:41;20.30;99.90
3310;DHT22;1667;53.238;10.394;2023-07-31T10:15:41;20.40;99.90
3310;DHT22;1667;53.238;10.394;2023-07-31T10:20:41;20.30;99.90
3310;DHT22;1667;53.238;10.394;2023-07-31T10:25:42;20.40;99.90
3310;DHT22;1667;53.238;10.394;2023-07-31T10:30:41;20.50;99.90
3310;DHT22;1667;53.238;10.394;2023-07-31T10:35:40;20.60;99.90
3310;DHT22;1667;53.238;10.394;2023-07-31T10:40:41;20.70;99.90
3310;DHT22;1667;53.238;10.394;2023-07-31T10:45:59;20.80;99.90
3310;DHT22;1667;53.238;10.394;2023-07-31T10:50:58;21.00;99.90
3310;DHT22;1667;53.238;10.394;2023-07-31T10:55:59;21.10;99.90
3310;DHT22;1667;53.238;10.394;2023-07-31T11:01:00;21.10;99.90
3310;DHT22;1667;53.238;10.394;2023-07-31T11:06:01;21.10;99.90
3310;DHT22;1667;53.238;10.394;2023-07-31T11:11:09;21.10;99.90
3310;DHT22;1667;53.238;10.394;2023-07-31T11:16:08;21.10;99.90
3310;DHT22;1667;53.238;10.394;2023-07-31T11:21:07;21.10;99.90
3310;DHT22;1667;53.238;10.394;2023-07-31T11:26:06;21.10;99.90
3310;DHT22;1667;53.238;10.394;2023-07-31T11:31:08;21.10;99.90
3310;DHT22;1667;53.238;10.394;2023-07-31T11:36:16;21.10;99.90
3310;DHT22;1667;53.238;10.394;2023-07-31T11:41:16;21.10;99.90
3310;DHT22;1667;53.238;10.394;2023-07-31T11:46:16;21.20;99.90
3310;DHT22;1667;53.238;10.394;2023-07-31T11:51:16;21.20;99.90
3310;DHT22;1667;53.238;10.394;2023-07-31T11:56:17;21.30;99.90
3310;DHT22;1667;53.238;10.394;2023-07-31T12:01:19;21.30;99.90
3310;DHT22;1667;53.238;10.394;2023-07-31T12:06:19;21.30;99.90
3310;DHT22;1667;53.238;10.394;2023-07-31T12:11:18;21.30;99.90
3310;DHT22;1667;53.238;10.394;2023-07-31T12:16:18;21.30;99.90
3310;DHT22;1667;53.238;10.394;2023-07-31T12:21:17;21.30;99.90
3310;DHT22;1667;53.238;10.394;2023-07-31T12:26:16;21.20;99.90
3310;DHT22;1667;53.238;10.394;2023-07-31T12:31:18;21.20;99.90
3310;DHT22;1667;53.238;10.394;2023-07-31T12:36:20;21.20;99.90
3310;DHT22;1667;53.238;10.394;2023-07-31T12:41:19;21.20;99.90
3310;DHT22;1667;53.238;10.394;2023-07-31T12:46:18;21.20;99.90
3310;DHT22;1667;53.238;10.394;2023-07-31T12:51:17;21.20;99.90
3310;DHT22;1667;53.238;10.394;2023-07-31T12:56:15;21.20;99.90
3310;DHT22;1667;53.238;10.394;2023-07-31T13:01:14;21.20;99.90
3310;DHT22;1667;53.238;10.394;2023-07-31T13:06:14;21.20;99.90
3310;DHT22;1667;53.238;10.394;2023-07-31T13:11:13;21.20;99.90
3310;DHT22;1667;53.238;10.394;2023-07-31T13:16:12;21.20;99.90
3310;DHT22;1667;53.238;10.394;2023-07-31T13:21:11;21.10;99.90
3310;DHT22;1667;53.238;10.394;2023-07-31T13:26:12;21.10;99.90
3310;DHT22;1667;53.238;10.394;2023-07-31T13:31:11;21.10;99.90
3310;DHT22;1667;53.238;10.394;2023-07-31T13:42:17;21.10;99.90
3310;DHT22;1667;53.238;10.394;2023-07-31T13:47:16;21.10;99.90
3310;DHT22;1667;53.238;10.394;2023-07-31T13:52:15;21.10;99.90
3310;DHT22;1667;53.238;10.394;2023-07-31T13:57:26;21.10;99.90
3310;DHT22;1667;53.238;10.394;2023-07-31T14:02:25;21.10;99.90
3310;DHT22;1667;53.238;10.394;2023-07-31T14:07:24;21.00;99.90
3310;DHT22;1667;53.238;10.394;2023-07-31T14:12:22;21.00;99.90
3310;DHT22;1667;53.238;10.394;2023-07-31T14:17:39;21.10;99.90
3310;DHT22;1667;53.238;10.394;2023-07-31T14:22:38;21.00;99.90
3310;DHT22;1667;53.238;10.394;2023-07-31T14:27:37;21.00;99.90
3310;DHT22;1667;53.238;10.394;2023-07-31T14:32:35;20.90;99.90
3310;DHT22;1667;53.238;10.394;2023-07-31T14:43:36;20.90;99.90
3310;DHT22;1667;53.238;10.394;2023-07-31T14:48:34;20.90;99.90
3310;DHT22;1667;53.238;10.394;2023-07-31T14:53:33;20.90;99.90
3310;DHT22;1667;53.238;10.394;2023-07-31T14:58:31;21.00;99.90
3310;DHT22;1667;53.238;10.394;2023-07-31T15:03:31;21.00;99.90
3310;DHT22;1667;53.238;10.394;2023-07-31T15:08:33;20.90;99.90
3310;DHT22;1667;53.238;10.394;2023-07-31T15:13:31;20.90;99.90
3310;DHT22;1667;53.238;10.394;2023-07-31T15:18:31;20.90;99.90
3310;DHT22;1667;53.238;10.394;2023-07-31T15:23:29;20.90;99.90
3310;DHT22;1667;53.238;10.394;2023-07-31T15:28:27;20.90;99.90
3310;DHT22;1667;53.238;10.394;2023-07-31T15:33:27;20.90;99.90
3310;DHT22;1667;53.238;10.394;2023-07-31T15:38:27;20.90;99.90
3310;DHT22;1667;53.238;10.394;2023-07-31T15:43:25;20.80;99.90
3310;DHT22;1667;53.238;10.394;2023-07-31T15:48:24;20.80;99.90
3310;DHT22;1667;53.238;10.394;2023-07-31T15:53:24;20.80;99.90
3310;DHT22;1667;53.238;10.394;2023-07-31T16:04:12;20.80;99.90
3310;DHT22;1667;53.238;10.394;2023-07-31T16:09:10;20.80;99.90
3310;DHT22;1667;53.238;10.394;2023-07-31T16:14:35;20.90;99.90
3310;DHT22;1667;53.238;10.394;2023-07-31T16:19:34;20.90;99.90
3310;DHT22;1667;53.238;10.394;2023-07-31T16:24:34;20.80;99.90
3310;DHT22;1667;53.238;10.394;2023-07-31T16:29:37;20.80;99.90
3310;DHT22;1667;53.238;10.394;2023-07-31T16:34:37;20.90;99.90
3310;DHT22;1667;53.238;10.394;2023-07-31T16:39:35;20.90;99.90
3310;DHT22;1667;53.238;10.394;2023-07-31T16:44:34;20.90;99.90
3310;DHT22;1667;53.238;10.394;2023-07-31T16:49:32;20.80;99.90
3310;DHT22;1667;53.238;10.394;2023-07-31T16:54:32;20.90;99.90
3310;DHT22;1667;53.238;10.394;2023-07-31T16:59:31;20.90;99.90
3310;DHT22;1667;53.238;10.394;2023-07-31T17:04:29;20.80;99.90
3310;DHT22;1667;53.238;10.394;2023-07-31T17:09:28;20.80;99.90
3310;DHT22;1667;53.238;10.394;2023-07-31T17:14:28;20.80;99.90
3310;DHT22;1667;53.238;10.394;2023-07-31T17:19:26;20.80;99.90
3310;DHT22;1667;53.238;10.394;2023-07-31T17:30:15;20.80;99.90
3310;DHT22;1667;53.238;10.394;2023-07-31T17:35:14;20.80;99.90
3310;DHT22;1667;53.238;10.394;2023-07-31T17:40:13;20.70;99.90
3310;DHT22;1667;53.238;10.394;2023-07-31T17:45:11;20.70;99.90
3310;DHT22;1667;53.238;10.394;2023-07-31T17:50:11;20.60;99.90
3310;DHT22;1667;53.238;10.394;2023-07-31T17:55:09;20.60;99.90
3310;DHT22;1667;53.238;10.394;2023-07-31T18:00:09;20.60;99.90
3310;DHT22;1667;53.238;10.394;2023-07-31T18:05:08;20.60;99.90
3310;DHT22;1667;53.238;10.394;2023-07-31T18:10:09;20.60;99.90
3310;DHT22;1667;53.238;10.394;2023-07-31T18:15:09;20.60;99.90
3310;DHT22;1667;53.238;10.394;2023-07-31T18:27:04;20.50;99.90
3310;DHT22;1667;53.238;10.394;2023-07-31T18:32:02;20.50;99.90
3310;DHT22;1667;53.238;10.394;2023-07-31T18:37:01;20.50;99.90
3310;DHT22;1667;53.238;10.394;2023-07-31T18:42:02;20.50;99.90
3310;DHT22;1667;53.238;10.394;2023-07-31T18:53:36;20.50;99.90
3310;DHT22;1667;53.238;10.394;2023-07-31T18:58:36;20.40;99.90
3310;DHT22;1667;53.238;10.394;2023-07-31T19:03:35;20.30;99.90
3310;DHT22;1667;53.238;10.394;2023-07-31T19:08:35;20.30;99.90
3310;DHT22;1667;53.238;10.394;2023-07-31T19:13:33;20.30;99.90
3310;DHT22;1667;53.238;10.394;2023-07-31T19:18:33;20.30;99.90
3310;DHT22;1667;53.238;10.394;2023-07-31T19:23:32;20.20;99.90
3310;DHT22;1667;53.238;10.394;2023-07-31T19:28:30;20.20;99.90
3310;DHT22;1667;53.238;10.394;2023-07-31T19:33:29;20.20;99.90
3310;DHT22;1667;53.238;10.394;2023-07-31T19:38:29;20.20;99.90
3310;DHT22;1667;53.238;10.394;2023-07-31T19:43:28;20.20;99.90
3310;DHT22;1667;53.238;10.394;2023-07-31T19:54:58;20.20;99.90
3310;DHT22;1667;53.238;10.394;2023-07-31T19:59:56;20.10;99.90
3310;DHT22;1667;53.238;10.394;2023-07-31T20:04:55;20.10;99.90
3310;DHT22;1667;53.238;10.394;2023-07-31T20:09:53;20.10;99.90
3310;DHT22;1667;53.238;10.394;2023-07-31T20:14:55;20.00;99.90
3310;DHT22;1667;53.238;10.394;2023-07-31T20:19:53;20.00;99.90
3310;DHT22;1667;53.238;10.394;2023-07-31T20:24:52;20.00;99.90
3310;DHT22;1667;53.238;10.394;2023-07-31T20:29:50;20.00;99.90
3310;DHT22;1667;53.238;10.394;2023-07-31T20:34:50;19.90;99.90
3310;DHT22;1667;53.238;10.394;2023-07-31T20:39:48;19.90;99.90
3310;DHT22;1667;53.238;10.394;2023-07-31T20:44:47;19.90;99.90
3310;DHT22;1667;53.238;10.394;2023-07-31T20:50:03;19.80;99.90
3310;DHT22;1667;53.238;10.394;2023-07-31T20:55:02;19.80;99.90
3310;DHT22;1667;53.238;10.394;2023-07-31T21:00:00;19.80;99.90
3310;DHT22;1667;53.238;10.394;2023-07-31T21:04:59;19.70;99.90
3310;DHT22;1667;53.238;10.394;2023-07-31T21:10:17;19.70;99.90
3310;DHT22;1667;53.238;10.394;2023-07-31T21:15:15;19.70;99.90
3310;DHT22;1667;53.238;10.394;2023-07-31T21:20:14;19.70;99.90
3310;DHT22;1667;53.238;10.394;2023-07-31T21:31:09;19.70;99.90
3310;DHT22;1667;53.238;10.394;2023-07-31T21:36:09;19.60;99.90
3310;DHT22;1667;53.238;10.394;2023-07-31T21:41:08;19.50;99.90
3310;DHT22;1667;53.238;10.394;2023-07-31T21:46:06;19.50;99.90
3310;DHT22;1667;53.238;10.394;2023-07-31T21:51:06;19.50;99.90
3310;DHT22;1667;53.238;10.394;2023-07-31T21:56:05;19.60;99.90
3310;DHT22;1667;53.238;10.394;2023-07-31T22:01:03;19.60;99.90
3310;DHT22;1667;53.238;10.394;2023-07-31T22:06:04;19.60;99.90
3310;DHT22;1667;53.238;10.394;2023-07-31T22:11:03;19.60;99.90
3310;DHT22;1667;53.238;10.394;2023-07-31T22:16:02;19.60;99.90
3310;DHT22;1667;53.238;10.394;2023-07-31T22:21:01;19.60;99.90
3310;DHT22;1667;53.238;10.394;2023-07-31T22:25:59;19.60;99.90
3310;DHT22;1667;53.238;10.394;2023-07-31T22:30:59;19.60;99.90
3310;DHT22;1667;53.238;10.394;2023-07-31T22:35:58;19.60;99.90
3310;DHT22;1667;53.238;10.394;2023-07-31T22:40:56;19.60;99.90
3310;DHT22;1667;53.238;10.394;2023-07-31T22:45:55;19.60;99.90
3310;DHT22;1667;53.238;10.394;2023-07-31T22:50:54;19.60;99.90
3310;DHT22;1667;53.238;10.394;2023-07-31T22:55:53;19.60;99.90
3310;DHT22;1667;53.238;10.394;2023-07-31T23:01:00;19.60;99.90
3310;DHT22;1667;53.238;10.394;2023-07-31T23:06:01;19.60;99.90
3310;DHT22;1667;53.238;10.394;2023-07-31T23:11:00;19.60;99.90
3310;DHT22;1667;53.238;10.394;2023-07-31T23:15:59;19.60;99.90
3310;DHT22;1667;53.238;10.394;2023-07-31T23:20:59;19.60;99.90
3310;DHT22;1667;53.238;10.394;2023-07-31T23:25:57;19.60;99.90
3310;DHT22;1667;53.238;10.394;2023-07-31T23:31:01;19.60;99.90
3310;DHT22;1667;53.238;10.394;2023-07-31T23:36:08;19.60;99.90
3310;DHT22;1667;53.238;10.394;2023-07-31T23:41:07;19.60;99.90
3310;DHT22;1667;53.238;10.394;2023-07-31T23:46:06;19.60;99.90
3310;DHT22;1667;53.238;10.394;2023-07-31T23:51:04;19.50;99.90
3310;DHT22;1667;53.238;10.394;2023-07-31T23:56:04;19.50;99.90
